KPRC

Ernest A Love Field Airport

Prescott, Arizona, USA
METAR KPRC 200053Z 20006KT 10SM CLR 12/M06 A2997 RMK AO2 SLP120 T01221056
Observed Flight Rules
Jan-20 @ 00:53 UTC (31 minutes ago) Visual Flight Rules
Wind Visibility Clouds
200° at 6 knots 10 miles
  • Clear skies
Temperatures Readings
Current 12°C / 54°F
Dewpoint -6°C / 21°F
Humidity 28%
Altimeter 29.97" Hg
Pressure 1012 hPa
Elevation 1524
METAR KPRC 200053Z 20006KT 10SM CLR 12/M06 A2997 RMK AO2 SLP120 T01221056
Observed Flight Rules
Jan-20 @ 00:53 UTC
(31 minutes ago)
VFR
Wind Visibility
200° at 6 knots 10 miles
Clouds
  • Clear skies
Temperature Dewpoint
12°C / 54°F -6°C / 21°F
Humidity Altimeter Pressure
28% 29.97" Hg 1012 hPa